createdAt,value
2023-02-08T00:01:18.244Z,-1.64
2023-02-08T00:03:46.685Z,-1.62
2023-02-08T00:06:15.097Z,-1.61
2023-02-08T00:08:43.338Z,-1.64
2023-02-08T00:11:11.974Z,-1.67
2023-02-08T00:13:42.081Z,-1.75
2023-02-08T00:16:13.884Z,-1.75
2023-02-08T00:18:42.402Z,-1.76
2023-02-08T00:21:14.892Z,-1.78
2023-02-08T00:23:43.121Z,-1.80
2023-02-08T00:26:11.649Z,-1.83
2023-02-08T00:28:39.901Z,-1.83
2023-02-08T00:31:08.560Z,-1.82
2023-02-08T00:33:38.198Z,-1.82
2023-02-08T00:36:08.903Z,-1.87
2023-02-08T00:38:37.682Z,-1.87
2023-02-08T00:41:06.314Z,-1.86
2023-02-08T00:43:34.670Z,-1.89
2023-02-08T00:46:02.794Z,-1.88
2023-02-08T00:48:31.823Z,-1.87
2023-02-08T00:51:06.717Z,-1.86
2023-02-08T00:53:38.308Z,-1.87
2023-02-08T00:56:07.363Z,-1.92
2023-02-08T00:58:36.286Z,-1.89
2023-02-08T01:01:06.167Z,-1.91
2023-02-08T01:03:35.787Z,-1.94
2023-02-08T01:06:07.999Z,-1.96
2023-02-08T01:08:36.256Z,-2.03
2023-02-08T01:11:07.042Z,-2.04
2023-02-08T01:13:35.370Z,-2.11
2023-02-08T01:16:12.755Z,-2.11
2023-02-08T01:18:41.456Z,-2.10
2023-02-08T01:21:13.308Z,-2.08
2023-02-08T01:23:41.769Z,-2.13
2023-02-08T01:26:11.374Z,-2.14
2023-02-08T01:28:40.224Z,-2.11
2023-02-08T01:31:10.086Z,-2.11
2023-02-08T01:33:38.712Z,-2.20
2023-02-08T01:36:07.830Z,-2.08
2023-02-08T01:38:38.242Z,-2.08
2023-02-08T01:41:26.613Z,-2.09
2023-02-08T01:44:07.298Z,-2.11
2023-02-08T01:46:37.060Z,-2.13
2023-02-08T01:49:09.412Z,-2.11
2023-02-08T01:51:41.843Z,-2.14
2023-02-08T01:54:14.209Z,-2.17
2023-02-08T01:56:46.263Z,-2.14
2023-02-08T01:59:19.213Z,-2.17
2023-02-08T02:01:49.910Z,-2.15
2023-02-08T02:04:18.196Z,-2.16
2023-02-08T02:06:50.027Z,-2.16
2023-02-08T02:09:25.888Z,-2.17
2023-02-08T02:11:55.713Z,-2.20
2023-02-08T02:14:24.701Z,-2.19
2023-02-08T02:16:52.771Z,-2.20
2023-02-08T02:19:30.534Z,-2.25
2023-02-08T02:22:09.080Z,-2.28
2023-02-08T02:25:06.603Z,-2.30
2023-02-08T02:27:50.067Z,-2.36
2023-02-08T02:30:53.373Z,-2.37
2023-02-08T02:33:54.854Z,-2.40
2023-02-08T02:36:34.638Z,-2.41
2023-02-08T02:39:15.049Z,-2.43
2023-02-08T02:42:12.570Z,-2.46
2023-02-08T02:44:51.948Z,-2.50
2023-02-08T02:47:29.944Z,-2.47
2023-02-08T02:50:05.678Z,-2.53
2023-02-08T02:52:41.941Z,-2.52
2023-02-08T02:55:13.448Z,-2.51
2023-02-08T02:57:45.065Z,-2.54
2023-02-08T03:00:20.702Z,-2.60
2023-02-08T03:02:49.075Z,-2.62
2023-02-08T03:05:18.901Z,-2.64
2023-02-08T03:08:08.603Z,-2.67
2023-02-08T03:10:51.389Z,-2.64
2023-02-08T03:13:30.972Z,-2.69
2023-02-08T03:16:12.704Z,-2.70
2023-02-08T03:18:54.167Z,-2.72
2023-02-08T03:21:34.018Z,-2.74
2023-02-08T03:24:07.130Z,-2.78
2023-02-08T03:26:39.713Z,-2.82
2023-02-08T03:29:16.097Z,-2.82
2023-02-08T03:31:49.181Z,-2.84
2023-02-08T03:34:23.947Z,-2.93
2023-02-08T03:36:57.257Z,-2.97
2023-02-08T03:39:29.471Z,-2.97
2023-02-08T03:42:01.418Z,-2.92
2023-02-08T03:44:35.353Z,-2.89
2023-02-08T03:47:09.386Z,-2.96
2023-02-08T03:49:39.191Z,-2.94
2023-02-08T03:52:11.574Z,-2.94
2023-02-08T03:54:45.127Z,-2.99
2023-02-08T03:57:19.189Z,-2.87
2023-02-08T03:59:53.168Z,-2.83
2023-02-08T04:02:25.022Z,-2.78
2023-02-08T04:04:54.686Z,-2.78
2023-02-08T04:07:24.205Z,-2.76
2023-02-08T04:09:52.248Z,-2.76
2023-02-08T04:12:20.493Z,-2.81
2023-02-08T04:14:48.750Z,-2.84
2023-02-08T04:17:16.864Z,-2.84
2023-02-08T04:19:44.987Z,-2.87
2023-02-08T04:22:13.103Z,-2.92
2023-02-08T04:24:42.643Z,-2.90
2023-02-08T04:27:10.777Z,-2.88
2023-02-08T04:29:38.932Z,-2.92
2023-02-08T04:32:11.624Z,-2.90
2023-02-08T04:34:39.969Z,-2.88
2023-02-08T04:37:08.741Z,-2.87
2023-02-08T04:39:36.890Z,-2.87
2023-02-08T04:42:06.640Z,-2.85
2023-02-08T04:44:34.913Z,-2.90
2023-02-08T04:47:03.177Z,-2.85
2023-02-08T04:49:31.377Z,-2.83
2023-02-08T04:51:59.645Z,-2.87
2023-02-08T04:54:27.848Z,-2.88
2023-02-08T04:56:55.974Z,-2.94
2023-02-08T04:59:25.634Z,-2.95
2023-02-08T05:01:53.724Z,-2.95
2023-02-08T05:04:22.037Z,-2.89
2023-02-08T05:06:50.099Z,-2.94
2023-02-08T05:09:18.161Z,-2.95
2023-02-08T05:11:47.067Z,-2.88
2023-02-08T05:14:15.204Z,-2.87
2023-02-08T05:16:44.782Z,-2.78
2023-02-08T05:19:13.565Z,-2.79
2023-02-08T05:21:41.723Z,-2.74
2023-02-08T05:24:12.953Z,-2.74
2023-02-08T05:26:41.693Z,-2.74
2023-02-08T05:29:12.009Z,-2.74
2023-02-08T05:31:40.751Z,-2.69
2023-02-08T05:34:10.410Z,-2.70
2023-02-08T05:36:39.001Z,-2.68
2023-02-08T05:39:07.941Z,-2.74
2023-02-08T05:41:36.092Z,-2.72
2023-02-08T05:44:04.289Z,-2.65
2023-02-08T05:46:32.705Z,-2.59
2023-02-08T05:49:00.800Z,-2.58
2023-02-08T05:51:30.363Z,-2.57
2023-02-08T05:53:58.401Z,-2.51
2023-02-08T05:56:27.686Z,-2.45
2023-02-08T05:58:56.402Z,-2.43
2023-02-08T06:01:24.732Z,-2.40
2023-02-08T06:03:53.181Z,-2.43
2023-02-08T06:06:21.588Z,-2.43
2023-02-08T06:08:51.057Z,-2.25
2023-02-08T06:11:20.188Z,-2.18
2023-02-08T06:13:48.826Z,-2.12
2023-02-08T06:16:19.877Z,-2.15
2023-02-08T06:18:48.648Z,-2.16
2023-02-08T06:21:16.955Z,-2.03
2023-02-08T06:23:45.329Z,-1.98
2023-02-08T06:26:14.926Z,-1.94
2023-02-08T06:28:43.074Z,-1.88
2023-02-08T06:31:11.168Z,-1.84
2023-02-08T06:33:39.661Z,-1.81
2023-02-08T06:36:08.782Z,-1.84
2023-02-08T06:38:36.836Z,-1.72
2023-02-08T06:41:05.045Z,-1.70
2023-02-08T06:43:34.683Z,-1.68
2023-02-08T06:46:04.933Z,-1.69
2023-02-08T06:48:33.187Z,-1.64
2023-02-08T06:51:01.730Z,-1.68
2023-02-08T06:53:30.172Z,-1.64
2023-02-08T06:55:58.379Z,-1.61
2023-02-08T06:58:26.593Z,-1.51
2023-02-08T07:00:56.371Z,-1.57
2023-02-08T07:03:24.587Z,-1.52
2023-02-08T07:06:04.551Z,-1.43
2023-02-08T07:08:34.166Z,-1.31
2023-02-08T07:11:06.948Z,-1.30
2023-02-08T07:13:35.234Z,-1.29
2023-02-08T07:16:05.294Z,-1.22
2023-02-08T07:18:34.083Z,-1.24
2023-02-08T07:21:02.357Z,-1.28
2023-02-08T07:23:31.435Z,-1.23
2023-02-08T07:26:00.340Z,-1.17
2023-02-08T07:28:29.054Z,-1.16
2023-02-08T07:30:57.360Z,-1.15
2023-02-08T07:33:27.573Z,-1.07
2023-02-08T07:35:55.801Z,-1.05
2023-02-08T07:38:24.027Z,-1.00
2023-02-08T07:40:52.455Z,-0.93
2023-02-08T07:43:20.683Z,-0.95
2023-02-08T07:45:49.299Z,-0.93
2023-02-08T07:48:17.545Z,-0.96
2023-02-08T07:50:47.691Z,-0.96
2023-02-08T07:53:16.088Z,-0.82
2023-02-08T07:55:46.851Z,-0.73
2023-02-08T07:58:15.541Z,-0.70
2023-02-08T08:00:43.836Z,-0.66
2023-02-08T08:03:12.341Z,-0.52
2023-02-08T08:05:42.175Z,-0.58
2023-02-08T08:08:13.229Z,-0.48
2023-02-08T08:10:41.752Z,-0.41
2023-02-08T08:13:10.371Z,-0.39
2023-02-08T08:15:38.603Z,-0.25
2023-02-08T08:18:06.887Z,-0.16
2023-02-08T08:20:35.349Z,-0.09
2023-02-08T08:23:03.774Z,-0.10
2023-02-08T08:25:33.414Z,-0.22
2023-02-08T08:28:03.100Z,-0.28
2023-02-08T08:30:31.316Z,-0.22
2023-02-08T08:32:59.663Z,-0.22
2023-02-08T08:35:27.826Z,-0.26
2023-02-08T08:37:56.130Z,-0.21
2023-02-08T08:40:25.236Z,-0.19
2023-02-08T08:42:54.937Z,-0.14
2023-02-08T08:45:23.200Z,-0.08
2023-02-08T08:47:51.489Z,-0.18
2023-02-08T08:50:20.072Z,-0.11
2023-02-08T08:52:48.400Z,-0.05
2023-02-08T08:55:16.679Z,0.10
2023-02-08T08:57:44.864Z,0.08
2023-02-08T09:00:15.910Z,0.21
2023-02-08T09:02:44.171Z,0.18
2023-02-08T09:05:12.358Z,0.22
2023-02-08T09:07:40.689Z,0.42
2023-02-08T09:10:09.195Z,0.47
2023-02-08T09:12:37.568Z,0.45
2023-02-08T09:15:06.656Z,0.46
2023-02-08T09:17:36.335Z,0.52
2023-02-08T09:20:04.975Z,0.58
2023-02-08T09:22:33.389Z,0.55
2023-02-08T09:25:02.219Z,0.62
2023-02-08T09:27:30.535Z,0.61
2023-02-08T09:30:01.988Z,0.59
2023-02-08T09:32:34.122Z,0.69
2023-02-08T09:35:04.080Z,0.71
2023-02-08T09:37:32.265Z,0.85
2023-02-08T09:40:01.813Z,0.75
2023-02-08T09:42:36.074Z,0.77
2023-02-08T09:45:27.814Z,0.85
2023-02-08T09:48:02.027Z,0.91
2023-02-08T09:50:35.414Z,1.14
2023-02-08T09:53:10.909Z,1.17
2023-02-08T09:55:42.783Z,1.25
2023-02-08T09:58:21.134Z,1.33
2023-02-08T10:00:53.503Z,1.48
2023-02-08T10:03:45.100Z,1.63
2023-02-08T10:06:17.140Z,1.66
2023-02-08T10:08:47.229Z,1.60
2023-02-08T10:11:43.467Z,1.50
2023-02-08T10:14:38.522Z,1.49
2023-02-08T10:17:20.481Z,1.54
2023-02-08T10:20:03.743Z,1.52
2023-02-08T10:22:46.735Z,1.43
2023-02-08T10:25:38.898Z,1.45
2023-02-08T10:28:30.805Z,1.40
2023-02-08T10:31:10.460Z,1.59
2023-02-08T10:33:49.408Z,1.71
2023-02-08T10:36:25.926Z,1.83
2023-02-08T10:39:00.107Z,1.92
2023-02-08T10:41:40.143Z,2.18
2023-02-08T10:44:27.584Z,2.19
2023-02-08T10:47:14.837Z,2.29
2023-02-08T10:49:53.339Z,2.23
2023-02-08T10:52:24.678Z,2.12
2023-02-08T10:54:54.840Z,1.94
2023-02-08T10:57:27.332Z,1.94
2023-02-08T11:00:04.678Z,2.18
2023-02-08T11:02:47.945Z,2.12
2023-02-08T11:05:19.206Z,1.74
2023-02-08T11:07:51.720Z,1.75
2023-02-08T11:10:29.406Z,1.64
2023-02-08T11:13:02.921Z,1.93
2023-02-08T11:15:43.136Z,1.97
2023-02-08T11:18:26.899Z,2.27
2023-02-08T11:20:58.505Z,2.27
2023-02-08T11:23:30.050Z,2.30
2023-02-08T11:26:17.740Z,2.42
2023-02-08T11:28:48.677Z,2.45
2023-02-08T11:31:29.735Z,2.40
2023-02-08T11:34:05.144Z,2.50
2023-02-08T11:36:51.022Z,2.34
2023-02-08T11:39:25.126Z,2.03
2023-02-08T11:41:59.157Z,2.10
2023-02-08T11:44:33.004Z,2.16
2023-02-08T11:47:04.545Z,2.50
2023-02-08T11:49:38.634Z,2.79
2023-02-08T11:52:09.257Z,3.22
2023-02-08T11:54:41.494Z,3.33
2023-02-08T11:57:17.631Z,3.38
2023-02-08T11:59:46.910Z,3.29
2023-02-08T12:02:36.142Z,3.33
2023-02-08T12:05:06.119Z,3.37
2023-02-08T12:07:46.496Z,3.27
2023-02-08T12:10:57.119Z,3.12
2023-02-08T12:13:48.158Z,3.10
2023-02-08T12:16:45.434Z,2.94
2023-02-08T12:19:38.565Z,2.92
2023-02-08T12:22:12.322Z,2.93
2023-02-08T12:24:50.903Z,2.93
2023-02-08T12:27:41.252Z,2.96
2023-02-08T12:30:22.709Z,2.63
2023-02-08T12:33:17.245Z,2.42
2023-02-08T12:36:18.164Z,2.18
2023-02-08T12:39:26.445Z,2.12
2023-02-08T12:42:20.859Z,2.35
2023-02-08T12:45:06.769Z,2.56
2023-02-08T12:48:03.646Z,2.54
2023-02-08T12:50:42.936Z,2.27
2023-02-08T12:53:19.368Z,2.42
2023-02-08T12:55:50.121Z,2.37
2023-02-08T12:58:29.576Z,2.45
2023-02-08T13:01:01.698Z,2.23
2023-02-08T13:03:40.580Z,2.09
2023-02-08T13:06:15.030Z,2.20
2023-02-08T13:08:49.157Z,2.37
2023-02-08T13:11:26.805Z,2.60
2023-02-08T13:14:02.137Z,2.63
2023-02-08T13:16:35.598Z,2.64
2023-02-08T13:19:25.676Z,2.64
2023-02-08T13:21:56.304Z,2.76
2023-02-08T13:24:30.762Z,2.79
2023-02-08T13:26:58.843Z,2.82
2023-02-08T13:29:29.681Z,2.80
2023-02-08T13:32:03.394Z,2.82
2023-02-08T13:34:37.357Z,2.98
2023-02-08T13:37:25.102Z,2.93
2023-02-08T13:40:04.057Z,2.83
2023-02-08T13:42:37.984Z,2.95
2023-02-08T13:45:10.347Z,3.05
2023-02-08T13:47:45.269Z,3.09
2023-02-08T13:50:46.166Z,3.34
2023-02-08T13:53:17.509Z,3.37
2023-02-08T13:56:01.986Z,3.08
2023-02-08T13:58:38.526Z,3.21
2023-02-08T14:01:20.125Z,3.19
2023-02-08T14:04:28.312Z,3.18
2023-02-08T14:07:06.324Z,3.06
2023-02-08T14:09:48.256Z,3.11
2023-02-08T14:12:25.131Z,3.15
2023-02-08T14:15:26.054Z,3.19
2023-02-08T14:17:58.444Z,3.20
2023-02-08T14:20:32.179Z,3.24
2023-02-08T14:23:04.225Z,3.27
2023-02-08T14:25:42.026Z,3.18
2023-02-08T14:28:30.857Z,3.13
2023-02-08T14:31:02.189Z,3.15
2023-02-08T14:33:34.785Z,3.30
2023-02-08T14:36:06.160Z,3.25
2023-02-08T14:39:06.561Z,3.38
2023-02-08T14:41:50.459Z,3.26
2023-02-08T14:44:55.247Z,3.31
2023-02-08T14:48:08.060Z,3.36
2023-02-08T14:50:44.554Z,3.18
2023-02-08T14:53:27.185Z,2.92
2023-02-08T14:56:02.300Z,3.03
2023-02-08T14:58:34.216Z,2.85
2023-02-08T15:01:07.476Z,2.83
2023-02-08T15:03:37.132Z,2.64
2023-02-08T15:06:30.932Z,2.55
2023-02-08T15:08:59.777Z,2.70
2023-02-08T15:11:32.411Z,2.37
2023-02-08T15:14:04.771Z,2.50
2023-02-08T15:16:37.777Z,2.37
2023-02-08T15:19:08.771Z,2.27
2023-02-08T15:21:39.038Z,2.30
2023-02-08T15:24:16.241Z,2.48
2023-02-08T15:26:51.269Z,2.40
2023-02-08T15:29:24.632Z,2.55
2023-02-08T15:31:56.324Z,2.39
2023-02-08T15:34:27.217Z,2.05
2023-02-08T15:36:57.634Z,1.65
2023-02-08T15:39:34.086Z,1.43
2023-02-08T15:42:03.792Z,1.22
2023-02-08T15:44:34.054Z,1.06
2023-02-08T15:47:05.659Z,0.85
2023-02-08T15:49:37.026Z,0.87
2023-02-08T15:52:07.471Z,0.87
2023-02-08T15:54:36.181Z,0.75
2023-02-08T15:57:09.466Z,0.59
2023-02-08T15:59:41.300Z,0.50
2023-02-08T16:02:24.146Z,0.52
2023-02-08T16:04:52.404Z,0.52
2023-02-08T16:07:27.127Z,0.42
2023-02-08T16:09:56.446Z,0.35
2023-02-08T16:12:28.208Z,0.42
2023-02-08T16:14:57.388Z,0.35
2023-02-08T16:17:44.850Z,0.35
2023-02-08T16:20:24.364Z,0.32
2023-02-08T16:22:57.958Z,0.33
2023-02-08T16:25:35.636Z,0.21
2023-02-08T16:28:07.332Z,-0.05
2023-02-08T16:30:35.996Z,-0.01
2023-02-08T16:33:09.305Z,-0.09
2023-02-08T16:35:41.046Z,0.01
2023-02-08T16:38:11.776Z,0.05
2023-02-08T16:40:49.145Z,0.08
2023-02-08T16:43:23.684Z,0.15
2023-02-08T16:46:23.947Z,0.11
2023-02-08T16:48:55.063Z,0.02
2023-02-08T16:51:27.104Z,0.05
2023-02-08T16:53:58.660Z,0.06
2023-02-08T16:56:27.414Z,-0.03
2023-02-08T16:58:59.910Z,-0.13
2023-02-08T17:01:32.122Z,-0.19
2023-02-08T17:04:00.930Z,-0.26
2023-02-08T17:06:32.621Z,-0.33
2023-02-08T17:09:02.354Z,-0.28
2023-02-08T17:11:30.970Z,-0.33
2023-02-08T17:14:00.943Z,-0.39
2023-02-08T17:16:31.408Z,-0.48
2023-02-08T17:19:00.512Z,-0.48
2023-02-08T17:21:29.437Z,-0.52
2023-02-08T17:23:58.646Z,-0.49
2023-02-08T17:26:29.304Z,-0.49
2023-02-08T17:28:59.232Z,-0.52
2023-02-08T17:31:29.795Z,-0.60
2023-02-08T17:34:04.171Z,-0.67
2023-02-08T17:36:32.985Z,-0.69
2023-02-08T17:39:01.349Z,-0.78
2023-02-08T17:41:29.821Z,-0.84
2023-02-08T17:43:58.973Z,-0.80
2023-02-08T17:46:31.543Z,-0.98
2023-02-08T17:49:01.915Z,-1.07
2023-02-08T17:51:30.554Z,-1.08
2023-02-08T17:53:58.703Z,-0.95
2023-02-08T17:56:29.322Z,-1.02
2023-02-08T17:59:00.865Z,-1.04
2023-02-08T18:01:30.993Z,-1.14
2023-02-08T18:04:01.899Z,-1.17
2023-02-08T18:06:30.126Z,-1.16
2023-02-08T18:08:58.224Z,-1.22
2023-02-08T18:11:26.399Z,-1.20
2023-02-08T18:13:55.778Z,-1.28
2023-02-08T18:16:26.867Z,-1.38
2023-02-08T18:18:59.374Z,-1.25
2023-02-08T18:21:30.247Z,-1.40
2023-02-08T18:24:03.501Z,-1.36
2023-02-08T18:26:34.434Z,-1.35
2023-02-08T18:29:03.710Z,-1.46
2023-02-08T18:31:32.669Z,-1.42
2023-02-08T18:34:02.939Z,-1.52
2023-02-08T18:36:31.512Z,-1.56
2023-02-08T18:39:00.206Z,-1.44
2023-02-08T18:41:30.822Z,-1.43
2023-02-08T18:44:00.494Z,-1.54
2023-02-08T18:46:30.393Z,-1.51
2023-02-08T18:48:59.516Z,-1.64
2023-02-08T18:51:31.943Z,-1.72
2023-02-08T18:54:00.550Z,-1.75
2023-02-08T18:56:29.729Z,-1.83
2023-02-08T18:59:00.702Z,-1.85
2023-02-08T19:01:31.482Z,-1.89
2023-02-08T19:04:04.230Z,-1.97
2023-02-08T19:06:38.427Z,-1.91
2023-02-08T19:09:08.978Z,-2.05
2023-02-08T19:11:38.843Z,-1.89
2023-02-08T19:14:09.606Z,-1.94
2023-02-08T19:16:39.716Z,-1.95
2023-02-08T19:19:08.608Z,-2.03
2023-02-08T19:21:40.343Z,-2.04
2023-02-08T19:24:08.684Z,-1.97
2023-02-08T19:26:40.560Z,-2.00
2023-02-08T19:29:13.603Z,-2.10
2023-02-08T19:31:42.661Z,-2.19
2023-02-08T19:34:12.524Z,-2.22
2023-02-08T19:36:44.478Z,-2.22
2023-02-08T19:39:14.850Z,-2.30
2023-02-08T19:41:43.556Z,-2.30
2023-02-08T19:44:15.629Z,-2.31
2023-02-08T19:46:48.259Z,-2.19
2023-02-08T19:49:16.955Z,-2.27
2023-02-08T19:51:47.504Z,-2.33
2023-02-08T19:54:18.347Z,-2.39
2023-02-08T19:56:47.975Z,-2.46
2023-02-08T19:59:20.662Z,-2.57
2023-02-08T20:01:52.123Z,-2.39
2023-02-08T20:04:20.836Z,-2.34
2023-02-08T20:06:53.435Z,-2.50
2023-02-08T20:09:22.090Z,-2.52
2023-02-08T20:12:00.081Z,-2.48
2023-02-08T20:14:31.231Z,-2.57
2023-02-08T20:17:00.005Z,-2.60
2023-02-08T20:19:28.476Z,-2.64
2023-02-08T20:21:58.239Z,-2.51
2023-02-08T20:24:26.333Z,-2.50
2023-02-08T20:26:54.542Z,-2.38
2023-02-08T20:29:26.409Z,-2.30
2023-02-08T20:31:55.936Z,-2.40
2023-02-08T20:34:24.419Z,-2.42
2023-02-08T20:37:06.434Z,-2.31
2023-02-08T20:39:37.639Z,-2.30
2023-02-08T20:42:06.525Z,-2.33
2023-02-08T20:44:35.179Z,-2.34
2023-02-08T20:47:03.450Z,-2.43
2023-02-08T20:49:32.498Z,-2.53
2023-02-08T20:52:01.291Z,-2.54
2023-02-08T20:54:30.109Z,-2.58
2023-02-08T20:57:00.130Z,-2.68
2023-02-08T20:59:28.307Z,-2.87
2023-02-08T21:01:56.838Z,-3.09
2023-02-08T21:04:26.449Z,-3.18
2023-02-08T21:06:54.616Z,-3.19
2023-02-08T21:09:23.021Z,-3.19
2023-02-08T21:11:52.014Z,-3.15
2023-02-08T21:14:23.744Z,-2.99
2023-02-08T21:16:53.957Z,-2.94
2023-02-08T21:19:22.314Z,-2.96
2023-02-08T21:21:54.703Z,-2.97
2023-02-08T21:24:24.062Z,-2.88
2023-02-08T21:26:52.754Z,-3.00
2023-02-08T21:29:22.778Z,-3.05
2023-02-08T21:31:53.905Z,-3.01
2023-02-08T21:34:23.105Z,-3.05
2023-02-08T21:36:51.595Z,-2.99
2023-02-08T21:39:19.794Z,-3.04
2023-02-08T21:41:48.381Z,-3.06
2023-02-08T21:44:16.578Z,-3.09
2023-02-08T21:46:46.317Z,-3.20
2023-02-08T21:49:31.822Z,-3.31
2023-02-08T21:52:17.277Z,-3.36
2023-02-08T21:54:46.198Z,-3.38
2023-02-08T21:57:19.321Z,-3.36
2023-02-08T21:59:49.056Z,-3.39
2023-02-08T22:02:22.049Z,-3.43
2023-02-08T22:05:08.796Z,-3.45
2023-02-08T22:07:45.218Z,-3.47
2023-02-08T22:10:17.682Z,-3.48
2023-02-08T22:12:47.556Z,-3.51
2023-02-08T22:15:18.458Z,-3.52
2023-02-08T22:17:48.614Z,-3.54
2023-02-08T22:20:16.926Z,-3.61
2023-02-08T22:22:45.575Z,-3.62
2023-02-08T22:25:14.109Z,-3.58
2023-02-08T22:27:42.718Z,-3.63
2023-02-08T22:30:12.897Z,-3.67
2023-02-08T22:32:41.635Z,-3.74
2023-02-08T22:35:12.101Z,-3.79
2023-02-08T22:37:40.429Z,-3.76
2023-02-08T22:40:09.968Z,-3.78
2023-02-08T22:42:42.065Z,-3.70
2023-02-08T22:45:11.579Z,-3.79
2023-02-08T22:47:40.264Z,-3.88
2023-02-08T22:50:10.987Z,-3.91
2023-02-08T22:52:39.313Z,-3.90
2023-02-08T22:55:08.029Z,-3.91
2023-02-08T22:57:37.857Z,-3.92
2023-02-08T23:00:11.078Z,-3.90
2023-02-08T23:02:39.341Z,-3.89
2023-02-08T23:05:08.122Z,-3.87
2023-02-08T23:07:38.696Z,-3.80
2023-02-08T23:10:07.277Z,-3.71
2023-02-08T23:12:35.601Z,-3.74
2023-02-08T23:15:04.102Z,-3.69
2023-02-08T23:17:32.440Z,-3.74
2023-02-08T23:20:00.738Z,-3.68
2023-02-08T23:22:28.825Z,-3.82
2023-02-08T23:24:58.468Z,-3.89
2023-02-08T23:27:26.603Z,-3.90
2023-02-08T23:29:54.934Z,-3.96
2023-02-08T23:32:23.126Z,-3.87
2023-02-08T23:34:51.274Z,-4.00
2023-02-08T23:37:19.424Z,-4.09
2023-02-08T23:39:47.991Z,-4.00
2023-02-08T23:42:26.699Z,-3.93
2023-02-08T23:44:55.046Z,-3.97
2023-02-08T23:47:23.966Z,-3.78
2023-02-08T23:49:52.193Z,-3.72
2023-02-08T23:52:20.628Z,-3.78
2023-02-08T23:54:49.664Z,-3.75
2023-02-08T23:57:19.821Z,-3.82
2023-02-08T23:59:48.104Z,-3.86
